sensor_id;sensor_type;location;lat;lon;timestamp;P1;durP1;ratioP1;P2;durP2;ratioP2
17915;SDS011;9083;49.156;8.982;2022-08-19T00:00:15;17.67;;;10.73;;
17915;SDS011;9083;49.156;8.982;2022-08-19T00:02:41;14.60;;;9.90;;
17915;SDS011;9083;49.156;8.982;2022-08-19T00:05:08;12.20;;;9.77;;
17915;SDS011;9083;49.156;8.982;2022-08-19T00:07:35;14.30;;;9.90;;
17915;SDS011;9083;49.156;8.982;2022-08-19T00:10:02;15.03;;;10.50;;
17915;SDS011;9083;49.156;8.982;2022-08-19T00:12:29;12.90;;;10.50;;
17915;SDS011;9083;49.156;8.982;2022-08-19T00:14:57;13.60;;;10.70;;
17915;SDS011;9083;49.156;8.982;2022-08-19T00:17:23;13.17;;;10.13;;
17915;SDS011;9083;49.156;8.982;2022-08-19T00:19:49;12.93;;;10.00;;
17915;SDS011;9083;49.156;8.982;2022-08-19T00:22:16;17.97;;;11.20;;
17915;SDS011;9083;49.156;8.982;2022-08-19T00:24:43;16.80;;;11.47;;
17915;SDS011;9083;49.156;8.982;2022-08-19T00:27:10;19.17;;;12.20;;
17915;SDS011;9083;49.156;8.982;2022-08-19T00:29:37;17.07;;;11.47;;
17915;SDS011;9083;49.156;8.982;2022-08-19T00:32:05;16.53;;;11.93;;
17915;SDS011;9083;49.156;8.982;2022-08-19T00:34:31;15.37;;;11.53;;
17915;SDS011;9083;49.156;8.982;2022-08-19T00:36:58;15.50;;;11.47;;
17915;SDS011;9083;49.156;8.982;2022-08-19T00:39:24;14.57;;;10.93;;
17915;SDS011;9083;49.156;8.982;2022-08-19T00:41:51;17.93;;;11.63;;
17915;SDS011;9083;49.156;8.982;2022-08-19T00:44:18;16.47;;;12.10;;
17915;SDS011;9083;49.156;8.982;2022-08-19T00:46:45;17.90;;;11.80;;
17915;SDS011;9083;49.156;8.982;2022-08-19T00:49:14;19.40;;;11.93;;
17915;SDS011;9083;49.156;8.982;2022-08-19T00:51:42;14.37;;;10.33;;
17915;SDS011;9083;49.156;8.982;2022-08-19T00:54:09;17.60;;;12.10;;
17915;SDS011;9083;49.156;8.982;2022-08-19T00:56:35;15.40;;;11.57;;
17915;SDS011;9083;49.156;8.982;2022-08-19T00:59:02;15.20;;;11.70;;
17915;SDS011;9083;49.156;8.982;2022-08-19T01:01:33;16.63;;;11.17;;
17915;SDS011;9083;49.156;8.982;2022-08-19T01:04:00;15.10;;;11.10;;
17915;SDS011;9083;49.156;8.982;2022-08-19T01:06:28;15.67;;;11.77;;
17915;SDS011;9083;49.156;8.982;2022-08-19T01:08:57;17.53;;;11.73;;
17915;SDS011;9083;49.156;8.982;2022-08-19T01:11:24;16.47;;;11.40;;
17915;SDS011;9083;49.156;8.982;2022-08-19T01:13:54;17.17;;;11.10;;
17915;SDS011;9083;49.156;8.982;2022-08-19T01:16:21;17.07;;;11.50;;
17915;SDS011;9083;49.156;8.982;2022-08-19T01:18:48;17.47;;;11.73;;
17915;SDS011;9083;49.156;8.982;2022-08-19T01:21:16;14.90;;;10.90;;
17915;SDS011;9083;49.156;8.982;2022-08-19T01:23:46;16.17;;;10.60;;
17915;SDS011;9083;49.156;8.982;2022-08-19T01:26:14;19.63;;;11.67;;
17915;SDS011;9083;49.156;8.982;2022-08-19T01:28:41;15.47;;;11.70;;
17915;SDS011;9083;49.156;8.982;2022-08-19T01:31:09;16.57;;;11.43;;
17915;SDS011;9083;49.156;8.982;2022-08-19T01:33:36;16.43;;;11.30;;
17915;SDS011;9083;49.156;8.982;2022-08-19T01:36:04;17.10;;;12.47;;
17915;SDS011;9083;49.156;8.982;2022-08-19T01:38:35;19.53;;;12.17;;
17915;SDS011;9083;49.156;8.982;2022-08-19T01:41:03;15.97;;;11.10;;
17915;SDS011;9083;49.156;8.982;2022-08-19T01:43:31;17.10;;;11.57;;
17915;SDS011;9083;49.156;8.982;2022-08-19T01:45:57;19.93;;;10.77;;
17915;SDS011;9083;49.156;8.982;2022-08-19T01:48:24;17.23;;;12.77;;
17915;SDS011;9083;49.156;8.982;2022-08-19T01:50:50;15.33;;;11.20;;
17915;SDS011;9083;49.156;8.982;2022-08-19T01:53:16;19.07;;;12.13;;
17915;SDS011;9083;49.156;8.982;2022-08-19T01:55:43;17.73;;;12.23;;
17915;SDS011;9083;49.156;8.982;2022-08-19T01:58:12;19.10;;;11.20;;
17915;SDS011;9083;49.156;8.982;2022-08-19T02:00:39;17.87;;;13.10;;
17915;SDS011;9083;49.156;8.982;2022-08-19T02:03:05;16.73;;;11.47;;
17915;SDS011;9083;49.156;8.982;2022-08-19T02:05:32;20.63;;;10.90;;
17915;SDS011;9083;49.156;8.982;2022-08-19T02:07:58;17.40;;;11.47;;
17915;SDS011;9083;49.156;8.982;2022-08-19T02:10:25;20.40;;;11.70;;
17915;SDS011;9083;49.156;8.982;2022-08-19T02:12:51;16.97;;;11.63;;
17915;SDS011;9083;49.156;8.982;2022-08-19T02:15:20;16.60;;;11.87;;
17915;SDS011;9083;49.156;8.982;2022-08-19T02:17:47;17.07;;;12.13;;
17915;SDS011;9083;49.156;8.982;2022-08-19T02:20:13;17.23;;;11.87;;
17915;SDS011;9083;49.156;8.982;2022-08-19T02:22:40;18.07;;;11.67;;
17915;SDS011;9083;49.156;8.982;2022-08-19T02:25:08;17.80;;;12.30;;
17915;SDS011;9083;49.156;8.982;2022-08-19T02:27:34;19.93;;;12.60;;
17915;SDS011;9083;49.156;8.982;2022-08-19T02:30:01;20.07;;;12.67;;
17915;SDS011;9083;49.156;8.982;2022-08-19T02:32:29;20.00;;;12.83;;
17915;SDS011;9083;49.156;8.982;2022-08-19T02:34:57;18.73;;;12.87;;
17915;SDS011;9083;49.156;8.982;2022-08-19T02:37:23;18.37;;;13.23;;
17915;SDS011;9083;49.156;8.982;2022-08-19T02:40:07;20.40;;;12.40;;
17915;SDS011;9083;49.156;8.982;2022-08-19T02:42:33;19.50;;;13.70;;
17915;SDS011;9083;49.156;8.982;2022-08-19T02:45:00;17.20;;;12.10;;
17915;SDS011;9083;49.156;8.982;2022-08-19T02:47:26;21.20;;;13.53;;
17915;SDS011;9083;49.156;8.982;2022-08-19T02:49:54;20.73;;;12.93;;
17915;SDS011;9083;49.156;8.982;2022-08-19T02:52:20;18.47;;;12.40;;
17915;SDS011;9083;49.156;8.982;2022-08-19T02:54:48;18.43;;;11.97;;
17915;SDS011;9083;49.156;8.982;2022-08-19T02:57:14;18.17;;;12.30;;
17915;SDS011;9083;49.156;8.982;2022-08-19T02:59:41;20.03;;;13.23;;
17915;SDS011;9083;49.156;8.982;2022-08-19T03:02:07;20.60;;;13.27;;
17915;SDS011;9083;49.156;8.982;2022-08-19T03:04:34;20.83;;;12.87;;
17915;SDS011;9083;49.156;8.982;2022-08-19T03:07:01;18.77;;;13.17;;
17915;SDS011;9083;49.156;8.982;2022-08-19T03:09:28;19.13;;;12.73;;
17915;SDS011;9083;49.156;8.982;2022-08-19T03:11:55;23.10;;;13.73;;
17915;SDS011;9083;49.156;8.982;2022-08-19T03:14:21;24.40;;;14.50;;
17915;SDS011;9083;49.156;8.982;2022-08-19T03:16:49;26.57;;;15.33;;
17915;SDS011;9083;49.156;8.982;2022-08-19T03:19:16;24.27;;;14.50;;
17915;SDS011;9083;49.156;8.982;2022-08-19T03:21:43;20.30;;;14.40;;
17915;SDS011;9083;49.156;8.982;2022-08-19T03:24:12;23.40;;;14.73;;
17915;SDS011;9083;49.156;8.982;2022-08-19T03:26:39;21.63;;;15.00;;
17915;SDS011;9083;49.156;8.982;2022-08-19T03:29:07;22.73;;;14.93;;
17915;SDS011;9083;49.156;8.982;2022-08-19T03:31:33;27.90;;;16.23;;
17915;SDS011;9083;49.156;8.982;2022-08-19T03:34:00;24.27;;;15.90;;
17915;SDS011;9083;49.156;8.982;2022-08-19T03:36:27;20.00;;;14.37;;
17915;SDS011;9083;49.156;8.982;2022-08-19T03:38:54;21.87;;;15.23;;
17915;SDS011;9083;49.156;8.982;2022-08-19T03:41:23;24.10;;;15.10;;
17915;SDS011;9083;49.156;8.982;2022-08-19T03:43:50;24.60;;;15.97;;
17915;SDS011;9083;49.156;8.982;2022-08-19T03:46:19;25.50;;;16.07;;
17915;SDS011;9083;49.156;8.982;2022-08-19T03:48:46;21.93;;;14.87;;
17915;SDS011;9083;49.156;8.982;2022-08-19T03:51:17;21.90;;;14.73;;
17915;SDS011;9083;49.156;8.982;2022-08-19T03:53:45;22.63;;;15.00;;
17915;SDS011;9083;49.156;8.982;2022-08-19T03:56:11;25.53;;;16.07;;
17915;SDS011;9083;49.156;8.982;2022-08-19T03:58:40;22.87;;;14.60;;
17915;SDS011;9083;49.156;8.982;2022-08-19T04:01:07;23.53;;;15.37;;
17915;SDS011;9083;49.156;8.982;2022-08-19T04:03:34;24.20;;;15.80;;
17915;SDS011;9083;49.156;8.982;2022-08-19T04:06:08;30.60;;;15.80;;
17915;SDS011;9083;49.156;8.982;2022-08-19T04:08:34;25.27;;;15.17;;
17915;SDS011;9083;49.156;8.982;2022-08-19T04:11:01;21.77;;;15.23;;
17915;SDS011;9083;49.156;8.982;2022-08-19T04:13:27;22.63;;;15.27;;
17915;SDS011;9083;49.156;8.982;2022-08-19T04:15:55;32.80;;;16.23;;
17915;SDS011;9083;49.156;8.982;2022-08-19T04:18:21;23.80;;;15.13;;
17915;SDS011;9083;49.156;8.982;2022-08-19T04:20:49;26.13;;;16.47;;
17915;SDS011;9083;49.156;8.982;2022-08-19T04:23:15;33.57;;;17.60;;
17915;SDS011;9083;49.156;8.982;2022-08-19T04:25:42;24.77;;;15.30;;
17915;SDS011;9083;49.156;8.982;2022-08-19T04:28:09;25.03;;;16.73;;
17915;SDS011;9083;49.156;8.982;2022-08-19T04:30:37;27.47;;;16.73;;
17915;SDS011;9083;49.156;8.982;2022-08-19T04:33:05;27.23;;;16.63;;
17915;SDS011;9083;49.156;8.982;2022-08-19T04:35:34;26.03;;;16.60;;
17915;SDS011;9083;49.156;8.982;2022-08-19T04:38:00;33.63;;;19.07;;
17915;SDS011;9083;49.156;8.982;2022-08-19T04:40:27;35.60;;;17.00;;
17915;SDS011;9083;49.156;8.982;2022-08-19T04:43:16;25.33;;;16.63;;
17915;SDS011;9083;49.156;8.982;2022-08-19T04:45:43;27.90;;;17.87;;
17915;SDS011;9083;49.156;8.982;2022-08-19T04:48:11;24.80;;;16.33;;
17915;SDS011;9083;49.156;8.982;2022-08-19T04:50:39;28.07;;;16.40;;
17915;SDS011;9083;49.156;8.982;2022-08-19T04:53:06;27.13;;;16.13;;
17915;SDS011;9083;49.156;8.982;2022-08-19T04:55:33;30.97;;;17.57;;
17915;SDS011;9083;49.156;8.982;2022-08-19T04:58:00;29.43;;;17.33;;
17915;SDS011;9083;49.156;8.982;2022-08-19T05:00:27;25.03;;;16.13;;
17915;SDS011;9083;49.156;8.982;2022-08-19T05:02:53;27.47;;;16.13;;
17915;SDS011;9083;49.156;8.982;2022-08-19T05:05:21;27.03;;;16.97;;
17915;SDS011;9083;49.156;8.982;2022-08-19T05:07:47;26.50;;;16.13;;
17915;SDS011;9083;49.156;8.982;2022-08-19T05:10:14;25.00;;;16.70;;
17915;SDS011;9083;49.156;8.982;2022-08-19T05:12:40;25.40;;;16.10;;
17915;SDS011;9083;49.156;8.982;2022-08-19T05:15:07;32.87;;;17.67;;
17915;SDS011;9083;49.156;8.982;2022-08-19T05:17:34;26.60;;;16.37;;
17915;SDS011;9083;49.156;8.982;2022-08-19T05:20:00;25.80;;;15.90;;
17915;SDS011;9083;49.156;8.982;2022-08-19T05:22:57;27.60;;;17.67;;
17915;SDS011;9083;49.156;8.982;2022-08-19T05:25:24;21.93;;;15.90;;
17915;SDS011;9083;49.156;8.982;2022-08-19T05:27:50;38.13;;;18.20;;
17915;SDS011;9083;49.156;8.982;2022-08-19T05:30:17;36.33;;;17.03;;
17915;SDS011;9083;49.156;8.982;2022-08-19T05:32:43;38.93;;;17.67;;
17915;SDS011;9083;49.156;8.982;2022-08-19T05:35:10;30.83;;;17.33;;
17915;SDS011;9083;49.156;8.982;2022-08-19T05:37:36;34.60;;;17.20;;
17915;SDS011;9083;49.156;8.982;2022-08-19T05:40:07;31.03;;;16.57;;
17915;SDS011;9083;49.156;8.982;2022-08-19T05:42:34;24.87;;;15.60;;
17915;SDS011;9083;49.156;8.982;2022-08-19T05:45:00;27.00;;;16.43;;
17915;SDS011;9083;49.156;8.982;2022-08-19T05:47:26;27.67;;;17.00;;
17915;SDS011;9083;49.156;8.982;2022-08-19T05:49:53;29.77;;;17.90;;
17915;SDS011;9083;49.156;8.982;2022-08-19T05:52:19;34.40;;;18.07;;
17915;SDS011;9083;49.156;8.982;2022-08-19T05:54:46;38.87;;;18.63;;
17915;SDS011;9083;49.156;8.982;2022-08-19T05:57:14;32.20;;;16.70;;
17915;SDS011;9083;49.156;8.982;2022-08-19T05:59:40;27.40;;;17.63;;
17915;SDS011;9083;49.156;8.982;2022-08-19T06:02:07;26.07;;;16.60;;
17915;SDS011;9083;49.156;8.982;2022-08-19T06:04:33;32.30;;;16.37;;
17915;SDS011;9083;49.156;8.982;2022-08-19T06:07:00;34.43;;;17.40;;
17915;SDS011;9083;49.156;8.982;2022-08-19T06:09:27;25.30;;;16.40;;
17915;SDS011;9083;49.156;8.982;2022-08-19T06:11:55;25.50;;;16.33;;
17915;SDS011;9083;49.156;8.982;2022-08-19T06:14:29;33.70;;;17.00;;
17915;SDS011;9083;49.156;8.982;2022-08-19T06:16:56;24.77;;;17.13;;
17915;SDS011;9083;49.156;8.982;2022-08-19T06:19:22;26.07;;;17.63;;
17915;SDS011;9083;49.156;8.982;2022-08-19T06:21:50;25.77;;;16.43;;
17915;SDS011;9083;49.156;8.982;2022-08-19T06:24:18;25.13;;;16.00;;
17915;SDS011;9083;49.156;8.982;2022-08-19T06:26:45;33.30;;;17.37;;
17915;SDS011;9083;49.156;8.982;2022-08-19T06:29:13;42.93;;;15.83;;
17915;SDS011;9083;49.156;8.982;2022-08-19T06:31:42;48.57;;;18.00;;
17915;SDS011;9083;49.156;8.982;2022-08-19T06:34:12;45.50;;;17.23;;
17915;SDS011;9083;49.156;8.982;2022-08-19T06:36:40;50.07;;;18.03;;
17915;SDS011;9083;49.156;8.982;2022-08-19T06:39:07;50.50;;;17.03;;
17915;SDS011;9083;49.156;8.982;2022-08-19T06:41:34;43.50;;;16.70;;
17915;SDS011;9083;49.156;8.982;2022-08-19T06:44:01;79.77;;;20.83;;
17915;SDS011;9083;49.156;8.982;2022-08-19T06:46:28;46.43;;;15.93;;
17915;SDS011;9083;49.156;8.982;2022-08-19T06:48:56;29.30;;;15.27;;
17915;SDS011;9083;49.156;8.982;2022-08-19T06:51:23;34.83;;;17.03;;
17915;SDS011;9083;49.156;8.982;2022-08-19T06:53:50;26.47;;;17.03;;
17915;SDS011;9083;49.156;8.982;2022-08-19T06:56:18;35.17;;;17.00;;
17915;SDS011;9083;49.156;8.982;2022-08-19T06:58:45;99.80;;;22.23;;
17915;SDS011;9083;49.156;8.982;2022-08-19T07:01:13;33.73;;;15.93;;
17915;SDS011;9083;49.156;8.982;2022-08-19T07:03:39;32.53;;;15.93;;
17915;SDS011;9083;49.156;8.982;2022-08-19T07:06:08;30.93;;;16.03;;
17915;SDS011;9083;49.156;8.982;2022-08-19T07:08:35;34.50;;;16.40;;
17915;SDS011;9083;49.156;8.982;2022-08-19T07:11:01;37.87;;;17.00;;
17915;SDS011;9083;49.156;8.982;2022-08-19T07:13:31;53.90;;;15.77;;
17915;SDS011;9083;49.156;8.982;2022-08-19T07:16:02;37.97;;;16.27;;
17915;SDS011;9083;49.156;8.982;2022-08-19T07:18:29;42.33;;;16.20;;
17915;SDS011;9083;49.156;8.982;2022-08-19T07:21:01;49.97;;;17.40;;
17915;SDS011;9083;49.156;8.982;2022-08-19T07:23:29;46.73;;;16.60;;
17915;SDS011;9083;49.156;8.982;2022-08-19T07:25:56;36.37;;;16.13;;
17915;SDS011;9083;49.156;8.982;2022-08-19T07:28:22;53.80;;;17.47;;
17915;SDS011;9083;49.156;8.982;2022-08-19T07:30:49;63.73;;;15.93;;
17915;SDS011;9083;49.156;8.982;2022-08-19T07:33:15;38.80;;;15.03;;
17915;SDS011;9083;49.156;8.982;2022-08-19T07:35:42;42.43;;;14.37;;
17915;SDS011;9083;49.156;8.982;2022-08-19T07:38:08;31.30;;;14.50;;
17915;SDS011;9083;49.156;8.982;2022-08-19T07:40:36;51.97;;;16.33;;
17915;SDS011;9083;49.156;8.982;2022-08-19T07:43:03;36.87;;;14.17;;
17915;SDS011;9083;49.156;8.982;2022-08-19T07:45:29;56.63;;;16.43;;
17915;SDS011;9083;49.156;8.982;2022-08-19T07:47:56;21.80;;;13.87;;
17915;SDS011;9083;49.156;8.982;2022-08-19T07:50:23;21.67;;;13.80;;
17915;SDS011;9083;49.156;8.982;2022-08-19T07:52:49;23.93;;;14.07;;
17915;SDS011;9083;49.156;8.982;2022-08-19T07:55:18;25.50;;;13.60;;
17915;SDS011;9083;49.156;8.982;2022-08-19T07:57:46;24.33;;;13.33;;
17915;SDS011;9083;49.156;8.982;2022-08-19T08:00:14;24.30;;;13.10;;
17915;SDS011;9083;49.156;8.982;2022-08-19T08:02:40;17.77;;;12.80;;
17915;SDS011;9083;49.156;8.982;2022-08-19T08:05:07;19.93;;;12.83;;
17915;SDS011;9083;49.156;8.982;2022-08-19T08:07:51;17.17;;;12.10;;
17915;SDS011;9083;49.156;8.982;2022-08-19T08:10:32;54.80;;;15.67;;
17915;SDS011;9083;49.156;8.982;2022-08-19T08:13:00;19.60;;;12.83;;
17915;SDS011;9083;49.156;8.982;2022-08-19T08:15:26;32.50;;;13.43;;
17915;SDS011;9083;49.156;8.982;2022-08-19T08:17:52;25.27;;;12.20;;
17915;SDS011;9083;49.156;8.982;2022-08-19T08:20:19;19.00;;;12.10;;
17915;SDS011;9083;49.156;8.982;2022-08-19T08:22:46;28.50;;;12.27;;
17915;SDS011;9083;49.156;8.982;2022-08-19T08:25:30;22.83;;;11.33;;
17915;SDS011;9083;49.156;8.982;2022-08-19T08:27:57;20.97;;;11.87;;
17915;SDS011;9083;49.156;8.982;2022-08-19T08:30:27;23.17;;;12.27;;
17915;SDS011;9083;49.156;8.982;2022-08-19T08:32:54;20.17;;;11.33;;
17915;SDS011;9083;49.156;8.982;2022-08-19T08:35:23;16.80;;;12.03;;
17915;SDS011;9083;49.156;8.982;2022-08-19T08:37:51;20.70;;;12.00;;
17915;SDS011;9083;49.156;8.982;2022-08-19T08:40:19;19.43;;;11.87;;
17915;SDS011;9083;49.156;8.982;2022-08-19T08:42:48;25.03;;;10.93;;
17915;SDS011;9083;49.156;8.982;2022-08-19T08:45:16;18.13;;;10.70;;
17915;SDS011;9083;49.156;8.982;2022-08-19T08:47:46;16.27;;;10.80;;
17915;SDS011;9083;49.156;8.982;2022-08-19T08:50:15;19.53;;;11.00;;
17915;SDS011;9083;49.156;8.982;2022-08-19T08:52:44;15.07;;;10.50;;
17915;SDS011;9083;49.156;8.982;2022-08-19T08:55:13;14.73;;;9.83;;
17915;SDS011;9083;49.156;8.982;2022-08-19T08:57:43;15.63;;;10.53;;
17915;SDS011;9083;49.156;8.982;2022-08-19T09:00:12;15.33;;;10.17;;
17915;SDS011;9083;49.156;8.982;2022-08-19T09:02:41;22.53;;;11.53;;
17915;SDS011;9083;49.156;8.982;2022-08-19T09:05:09;14.67;;;9.93;;
17915;SDS011;9083;49.156;8.982;2022-08-19T09:07:39;18.13;;;9.53;;
17915;SDS011;9083;49.156;8.982;2022-08-19T09:10:09;17.73;;;10.00;;
17915;SDS011;9083;49.156;8.982;2022-08-19T09:12:39;16.13;;;9.53;;
17915;SDS011;9083;49.156;8.982;2022-08-19T09:15:09;10.60;;;9.03;;
17915;SDS011;9083;49.156;8.982;2022-08-19T09:17:36;17.67;;;9.87;;
17915;SDS011;9083;49.156;8.982;2022-08-19T09:20:05;9.93;;;8.10;;
17915;SDS011;9083;49.156;8.982;2022-08-19T09:22:35;12.57;;;8.70;;
17915;SDS011;9083;49.156;8.982;2022-08-19T09:25:02;13.23;;;9.03;;
17915;SDS011;9083;49.156;8.982;2022-08-19T09:27:30;10.87;;;8.47;;
17915;SDS011;9083;49.156;8.982;2022-08-19T09:29:57;11.87;;;7.93;;
17915;SDS011;9083;49.156;8.982;2022-08-19T09:32:24;9.37;;;7.63;;
17915;SDS011;9083;49.156;8.982;2022-08-19T09:34:52;14.93;;;8.23;;
17915;SDS011;9083;49.156;8.982;2022-08-19T09:37:19;16.87;;;7.93;;
17915;SDS011;9083;49.156;8.982;2022-08-19T09:39:47;12.70;;;8.33;;
17915;SDS011;9083;49.156;8.982;2022-08-19T09:42:13;37.70;;;10.33;;
17915;SDS011;9083;49.156;8.982;2022-08-19T09:44:40;13.50;;;7.67;;
17915;SDS011;9083;49.156;8.982;2022-08-19T09:47:08;13.13;;;7.30;;
17915;SDS011;9083;49.156;8.982;2022-08-19T09:49:34;15.80;;;8.33;;
17915;SDS011;9083;49.156;8.982;2022-08-19T09:52:01;12.80;;;7.73;;
17915;SDS011;9083;49.156;8.982;2022-08-19T09:54:28;9.90;;;7.77;;
17915;SDS011;9083;49.156;8.982;2022-08-19T09:56:57;17.40;;;7.97;;
17915;SDS011;9083;49.156;8.982;2022-08-19T09:59:25;12.03;;;7.80;;
17915;SDS011;9083;49.156;8.982;2022-08-19T10:01:51;11.77;;;7.00;;
17915;SDS011;9083;49.156;8.982;2022-08-19T10:04:18;13.23;;;8.20;;
17915;SDS011;9083;49.156;8.982;2022-08-19T10:06:46;8.87;;;7.20;;
17915;SDS011;9083;49.156;8.982;2022-08-19T10:09:13;13.10;;;6.97;;
17915;SDS011;9083;49.156;8.982;2022-08-19T10:11:44;13.63;;;7.30;;
17915;SDS011;9083;49.156;8.982;2022-08-19T10:14:14;9.67;;;7.03;;
17915;SDS011;9083;49.156;8.982;2022-08-19T10:16:41;11.33;;;6.90;;
17915;SDS011;9083;49.156;8.982;2022-08-19T10:19:08;15.77;;;7.03;;
17915;SDS011;9083;49.156;8.982;2022-08-19T10:21:35;7.87;;;7.07;;
17915;SDS011;9083;49.156;8.982;2022-08-19T10:24:02;10.67;;;7.73;;
17915;SDS011;9083;49.156;8.982;2022-08-19T10:26:30;15.83;;;8.27;;
17915;SDS011;9083;49.156;8.982;2022-08-19T10:28:57;8.33;;;6.90;;
17915;SDS011;9083;49.156;8.982;2022-08-19T10:31:26;13.27;;;7.73;;
17915;SDS011;9083;49.156;8.982;2022-08-19T10:33:53;9.73;;;7.50;;
17915;SDS011;9083;49.156;8.982;2022-08-19T10:36:27;8.93;;;6.57;;
17915;SDS011;9083;49.156;8.982;2022-08-19T10:38:55;9.73;;;6.80;;
17915;SDS011;9083;49.156;8.982;2022-08-19T10:41:24;8.93;;;6.43;;
17915;SDS011;9083;49.156;8.982;2022-08-19T10:43:51;11.73;;;6.33;;
17915;SDS011;9083;49.156;8.982;2022-08-19T10:46:19;7.73;;;6.23;;
17915;SDS011;9083;49.156;8.982;2022-08-19T10:48:48;7.83;;;5.90;;
17915;SDS011;9083;49.156;8.982;2022-08-19T10:51:15;5.83;;;4.70;;
17915;SDS011;9083;49.156;8.982;2022-08-19T10:53:59;7.43;;;5.03;;
17915;SDS011;9083;49.156;8.982;2022-08-19T10:56:25;8.33;;;5.20;;
17915;SDS011;9083;49.156;8.982;2022-08-19T10:59:10;10.47;;;4.77;;
17915;SDS011;9083;49.156;8.982;2022-08-19T11:01:37;10.10;;;5.40;;
17915;SDS011;9083;49.156;8.982;2022-08-19T11:04:05;36.10;;;7.43;;
17915;SDS011;9083;49.156;8.982;2022-08-19T11:06:34;8.87;;;5.93;;
17915;SDS011;9083;49.156;8.982;2022-08-19T11:09:00;7.23;;;5.57;;
17915;SDS011;9083;49.156;8.982;2022-08-19T11:11:27;16.63;;;6.50;;
17915;SDS011;9083;49.156;8.982;2022-08-19T11:13:54;13.55;;;6.05;;
17915;SDS011;9083;49.156;8.982;2022-08-19T11:16:21;10.82;;;6.70;;
17915;SDS011;9083;49.156;8.982;2022-08-19T11:18:49;12.88;;;6.00;;
17915;SDS011;9083;49.156;8.982;2022-08-19T11:21:18;8.35;;;5.60;;
17915;SDS011;9083;49.156;8.982;2022-08-19T11:23:45;6.20;;;5.30;;
17915;SDS011;9083;49.156;8.982;2022-08-19T11:26:11;6.82;;;5.78;;
17915;SDS011;9083;49.156;8.982;2022-08-19T11:28:41;14.30;;;5.82;;
17915;SDS011;9083;49.156;8.982;2022-08-19T11:31:10;11.10;;;5.15;;
17915;SDS011;9083;49.156;8.982;2022-08-19T11:33:37;9.98;;;5.38;;
17915;SDS011;9083;49.156;8.982;2022-08-19T11:36:04;7.80;;;4.82;;
17915;SDS011;9083;49.156;8.982;2022-08-19T11:38:32;13.38;;;5.28;;
17915;SDS011;9083;49.156;8.982;2022-08-19T11:40:59;7.82;;;5.18;;
17915;SDS011;9083;49.156;8.982;2022-08-19T11:43:27;8.48;;;5.90;;
17915;SDS011;9083;49.156;8.982;2022-08-19T11:45:53;5.80;;;4.60;;
17915;SDS011;9083;49.156;8.982;2022-08-19T11:48:20;5.28;;;4.82;;
17915;SDS011;9083;49.156;8.982;2022-08-19T11:50:47;5.50;;;4.97;;
17915;SDS011;9083;49.156;8.982;2022-08-19T11:53:14;10.60;;;5.40;;
17915;SDS011;9083;49.156;8.982;2022-08-19T11:55:41;6.78;;;5.05;;
17915;SDS011;9083;49.156;8.982;2022-08-19T11:58:09;7.18;;;4.65;;
17915;SDS011;9083;49.156;8.982;2022-08-19T12:00:37;7.28;;;5.07;;
17915;SDS011;9083;49.156;8.982;2022-08-19T12:03:03;7.43;;;4.72;;
17915;SDS011;9083;49.156;8.982;2022-08-19T12:05:30;6.57;;;4.65;;
17915;SDS011;9083;49.156;8.982;2022-08-19T12:07:56;10.50;;;4.70;;
17915;SDS011;9083;49.156;8.982;2022-08-19T12:10:23;11.90;;;4.85;;
17915;SDS011;9083;49.156;8.982;2022-08-19T12:12:51;6.65;;;4.95;;
17915;SDS011;9083;49.156;8.982;2022-08-19T12:15:17;4.47;;;4.03;;
17915;SDS011;9083;49.156;8.982;2022-08-19T12:17:44;17.85;;;4.88;;
17915;SDS011;9083;49.156;8.982;2022-08-19T12:20:10;23.27;;;6.80;;
17915;SDS011;9083;49.156;8.982;2022-08-19T12:22:38;5.47;;;4.22;;
17915;SDS011;9083;49.156;8.982;2022-08-19T12:25:06;4.30;;;3.95;;
17915;SDS011;9083;49.156;8.982;2022-08-19T12:27:33;5.95;;;4.13;;
17915;SDS011;9083;49.156;8.982;2022-08-19T12:30:02;17.98;;;5.22;;
17915;SDS011;9083;49.156;8.982;2022-08-19T12:32:28;11.18;;;4.60;;
17915;SDS011;9083;49.156;8.982;2022-08-19T12:34:54;12.48;;;4.20;;
17915;SDS011;9083;49.156;8.982;2022-08-19T12:37:21;5.47;;;4.32;;
17915;SDS011;9083;49.156;8.982;2022-08-19T12:39:47;5.97;;;4.53;;
17915;SDS011;9083;49.156;8.982;2022-08-19T12:42:14;12.90;;;5.20;;
17915;SDS011;9083;49.156;8.982;2022-08-19T12:44:41;16.30;;;5.07;;
17915;SDS011;9083;49.156;8.982;2022-08-19T12:47:11;8.70;;;4.82;;
17915;SDS011;9083;49.156;8.982;2022-08-19T12:49:38;8.57;;;4.35;;
17915;SDS011;9083;49.156;8.982;2022-08-19T12:52:05;12.38;;;4.63;;
17915;SDS011;9083;49.156;8.982;2022-08-19T12:54:32;9.90;;;4.93;;
17915;SDS011;9083;49.156;8.982;2022-08-19T12:56:58;14.68;;;5.75;;
17915;SDS011;9083;49.156;8.982;2022-08-19T12:59:25;24.58;;;5.82;;
17915;SDS011;9083;49.156;8.982;2022-08-19T13:01:51;20.33;;;5.35;;
17915;SDS011;9083;49.156;8.982;2022-08-19T13:04:25;10.18;;;5.47;;
17915;SDS011;9083;49.156;8.982;2022-08-19T13:06:52;5.85;;;4.72;;
17915;SDS011;9083;49.156;8.982;2022-08-19T13:09:18;4.68;;;4.32;;
17915;SDS011;9083;49.156;8.982;2022-08-19T13:11:45;5.15;;;4.65;;
17915;SDS011;9083;49.156;8.982;2022-08-19T13:14:11;15.23;;;5.68;;
17915;SDS011;9083;49.156;8.982;2022-08-19T13:16:38;5.75;;;5.30;;
17915;SDS011;9083;49.156;8.982;2022-08-19T13:19:05;5.32;;;4.78;;
17915;SDS011;9083;49.156;8.982;2022-08-19T13:21:33;12.70;;;5.63;;
17915;SDS011;9083;49.156;8.982;2022-08-19T13:24:00;23.60;;;6.22;;
17915;SDS011;9083;49.156;8.982;2022-08-19T13:26:26;13.63;;;5.75;;
17915;SDS011;9083;49.156;8.982;2022-08-19T13:28:53;9.02;;;5.38;;
17915;SDS011;9083;49.156;8.982;2022-08-19T13:31:38;15.05;;;5.47;;
17915;SDS011;9083;49.156;8.982;2022-08-19T13:34:26;21.52;;;5.72;;
17915;SDS011;9083;49.156;8.982;2022-08-19T13:36:54;14.48;;;5.32;;
17915;SDS011;9083;49.156;8.982;2022-08-19T13:39:20;19.10;;;5.82;;
17915;SDS011;9083;49.156;8.982;2022-08-19T13:41:48;14.93;;;5.80;;
17915;SDS011;9083;49.156;8.982;2022-08-19T13:44:15;10.27;;;5.22;;
17915;SDS011;9083;49.156;8.982;2022-08-19T13:46:43;15.70;;;6.15;;
17915;SDS011;9083;49.156;8.982;2022-08-19T13:49:10;16.65;;;5.70;;
17915;SDS011;9083;49.156;8.982;2022-08-19T13:51:37;19.67;;;5.47;;
17915;SDS011;9083;49.156;8.982;2022-08-19T13:54:06;10.50;;;5.47;;
17915;SDS011;9083;49.156;8.982;2022-08-19T13:56:33;5.95;;;4.95;;
17915;SDS011;9083;49.156;8.982;2022-08-19T13:58:59;9.75;;;5.28;;
17915;SDS011;9083;49.156;8.982;2022-08-19T14:01:26;9.02;;;6.25;;
17915;SDS011;9083;49.156;8.982;2022-08-19T14:03:52;11.15;;;5.95;;
17915;SDS011;9083;49.156;8.982;2022-08-19T14:06:19;11.48;;;6.38;;
17915;SDS011;9083;49.156;8.982;2022-08-19T14:08:49;11.40;;;6.18;;
17915;SDS011;9083;49.156;8.982;2022-08-19T14:11:17;10.25;;;6.03;;
17915;SDS011;9083;49.156;8.982;2022-08-19T14:13:43;7.43;;;5.28;;
17915;SDS011;9083;49.156;8.982;2022-08-19T14:16:10;14.73;;;5.80;;
17915;SDS011;9083;49.156;8.982;2022-08-19T14:18:37;13.88;;;10.48;;
17915;SDS011;9083;49.156;8.982;2022-08-19T14:21:05;12.88;;;4.60;;
17915;SDS011;9083;49.156;8.982;2022-08-19T14:23:31;4.93;;;4.43;;
17915;SDS011;9083;49.156;8.982;2022-08-19T14:26:05;13.77;;;5.10;;
17915;SDS011;9083;49.156;8.982;2022-08-19T14:28:33;21.38;;;5.40;;
17915;SDS011;9083;49.156;8.982;2022-08-19T14:30:59;18.30;;;5.20;;
17915;SDS011;9083;49.156;8.982;2022-08-19T14:33:26;11.70;;;5.32;;
17915;SDS011;9083;49.156;8.982;2022-08-19T14:35:52;15.85;;;4.63;;
17915;SDS011;9083;49.156;8.982;2022-08-19T14:38:19;11.50;;;4.75;;
17915;SDS011;9083;49.156;8.982;2022-08-19T14:40:46;13.02;;;4.78;;
17915;SDS011;9083;49.156;8.982;2022-08-19T14:43:13;5.40;;;4.78;;